createdAt,value
2023-01-11T00:01:09.260Z,76.00
2023-01-11T00:03:37.172Z,85.77
2023-01-11T00:06:07.329Z,65.40
2023-01-11T00:08:35.058Z,71.80
2023-01-11T00:11:03.254Z,78.47
2023-01-11T00:13:33.112Z,75.80
2023-01-11T00:16:06.384Z,69.70
2023-01-11T00:18:34.152Z,74.63
2023-01-11T00:21:06.468Z,76.00
2023-01-11T00:23:35.606Z,67.77
2023-01-11T00:26:04.863Z,73.70
2023-01-11T00:28:32.493Z,75.57
2023-01-11T00:31:00.916Z,65.77
2023-01-11T00:33:28.778Z,62.67
2023-01-11T00:35:57.219Z,63.67
2023-01-11T00:38:43.472Z,69.40
2023-01-11T00:41:31.357Z,72.60
2023-01-11T00:44:17.618Z,64.73
2023-01-11T00:47:04.444Z,69.23
2023-01-11T00:49:32.441Z,60.90
2023-01-11T00:52:00.794Z,61.70
2023-01-11T00:54:28.567Z,60.23
2023-01-11T00:56:56.608Z,62.33
2023-01-11T00:59:24.366Z,63.73
2023-01-11T01:01:52.586Z,58.50
2023-01-11T01:04:20.320Z,59.30
2023-01-11T01:06:48.558Z,63.23
2023-01-11T01:09:16.276Z,58.43
2023-01-11T01:11:44.309Z,61.47
2023-01-11T01:14:29.956Z,62.90
2023-01-11T01:16:59.410Z,57.83
2023-01-11T01:19:30.310Z,60.47
2023-01-11T01:21:59.833Z,59.07
2023-01-11T01:24:32.332Z,63.47
2023-01-11T01:27:00.515Z,65.97
2023-01-11T01:29:28.504Z,59.83
2023-01-11T01:31:57.091Z,63.63
2023-01-11T01:34:24.906Z,69.37
2023-01-11T01:36:53.271Z,62.33
2023-01-11T01:39:21.477Z,62.83
2023-01-11T01:41:49.996Z,54.03
2023-01-11T01:44:54.495Z,59.17
2023-01-11T01:47:25.299Z,54.00
2023-01-11T01:49:53.426Z,59.13
2023-01-11T01:52:21.951Z,61.87
2023-01-11T01:54:50.272Z,62.47
2023-01-11T01:57:22.186Z,59.40
2023-01-11T01:59:52.115Z,63.20
2023-01-11T02:02:22.250Z,61.80
2023-01-11T02:04:50.274Z,60.90
2023-01-11T02:07:23.305Z,60.17
2023-01-11T02:09:55.563Z,59.53
2023-01-11T02:12:25.708Z,73.33
2023-01-11T02:14:54.719Z,60.93
2023-01-11T02:17:22.773Z,69.03
2023-01-11T02:19:57.122Z,73.10
2023-01-11T02:22:58.700Z,68.70
2023-01-11T02:25:38.961Z,61.27
2023-01-11T02:28:17.723Z,59.10
2023-01-11T02:31:06.899Z,71.13
2023-01-11T02:33:35.168Z,70.10
2023-01-11T02:36:03.226Z,65.63
2023-01-11T02:38:34.714Z,69.93
2023-01-11T02:41:14.292Z,63.10
2023-01-11T02:44:01.020Z,73.63
2023-01-11T02:46:48.098Z,70.10
2023-01-11T02:49:25.359Z,66.20
2023-01-11T02:51:56.811Z,69.13
2023-01-11T02:54:26.531Z,81.17
2023-01-11T02:56:57.655Z,67.93
2023-01-11T02:59:30.207Z,64.60
2023-01-11T03:01:58.384Z,68.60
2023-01-11T03:04:37.751Z,58.23
2023-01-11T03:07:09.355Z,61.17
2023-01-11T03:09:43.580Z,60.73
2023-01-11T03:12:55.320Z,80.17
2023-01-11T03:15:23.901Z,67.80
2023-01-11T03:17:51.545Z,65.97
2023-01-11T03:20:27.514Z,77.77
2023-01-11T03:22:55.263Z,64.50
2023-01-11T03:25:35.989Z,66.83
2023-01-11T03:28:10.973Z,58.40
2023-01-11T03:30:39.280Z,65.00
2023-01-11T03:33:24.230Z,64.60
2023-01-11T03:35:56.693Z,64.43
2023-01-11T03:38:28.764Z,60.10
2023-01-11T03:40:58.845Z,63.37
2023-01-11T03:43:28.117Z,73.33
2023-01-11T03:46:01.923Z,65.50
2023-01-11T03:48:35.902Z,74.73
2023-01-11T03:51:05.589Z,64.80
2023-01-11T03:53:35.677Z,71.80
2023-01-11T03:56:05.774Z,58.93
2023-01-11T03:58:34.323Z,62.97
2023-01-11T04:01:03.413Z,57.53
2023-01-11T04:03:31.375Z,70.83
2023-01-11T04:06:01.626Z,61.13
2023-01-11T04:08:31.171Z,69.60
2023-01-11T04:10:59.346Z,79.03
2023-01-11T04:13:27.431Z,65.97
2023-01-11T04:15:55.453Z,72.47
2023-01-11T04:18:23.297Z,70.50
2023-01-11T04:20:51.391Z,83.43
2023-01-11T04:23:19.126Z,75.77
2023-01-11T04:25:48.045Z,68.03
2023-01-11T04:28:16.212Z,64.13
2023-01-11T04:30:44.229Z,75.93
2023-01-11T04:33:13.401Z,70.73
2023-01-11T04:35:42.560Z,64.13
2023-01-11T04:38:10.836Z,70.17
2023-01-11T04:40:39.294Z,67.97
2023-01-11T04:43:06.957Z,75.43
2023-01-11T04:45:34.970Z,68.77
2023-01-11T04:48:02.825Z,70.53
2023-01-11T04:50:32.485Z,74.67
2023-01-11T04:53:00.237Z,68.13
2023-01-11T04:55:28.184Z,67.93
2023-01-11T04:57:55.930Z,65.80
2023-01-11T05:00:23.973Z,67.43
2023-01-11T05:02:52.026Z,64.70
2023-01-11T05:05:20.678Z,68.73
2023-01-11T05:07:48.825Z,71.20
2023-01-11T05:10:17.085Z,69.33
2023-01-11T05:12:44.729Z,61.47
2023-01-11T05:15:13.454Z,67.63
2023-01-11T05:17:41.181Z,61.70
2023-01-11T05:20:09.425Z,67.43
2023-01-11T05:22:37.259Z,69.43
2023-01-11T05:25:05.228Z,62.80
2023-01-11T05:27:33.401Z,63.93
2023-01-11T05:30:02.120Z,68.17
2023-01-11T05:32:30.573Z,73.97
2023-01-11T05:34:58.384Z,81.70
2023-01-11T05:37:25.791Z,73.27
2023-01-11T05:39:53.367Z,78.33
2023-01-11T05:42:22.222Z,79.10
2023-01-11T05:45:08.888Z,84.03
2023-01-11T05:47:36.680Z,76.67
2023-01-11T05:50:04.471Z,80.83
2023-01-11T05:52:31.706Z,84.50
2023-01-11T05:54:59.845Z,81.07
2023-01-11T05:57:27.178Z,78.33
2023-01-11T05:59:54.716Z,86.97
2023-01-11T06:02:22.602Z,79.30
2023-01-11T06:04:50.412Z,81.70
2023-01-11T06:07:17.715Z,85.97
2023-01-11T06:09:45.444Z,87.90
2023-01-11T06:12:12.812Z,73.57
2023-01-11T06:14:40.465Z,87.57
2023-01-11T06:17:07.770Z,93.23
2023-01-11T06:19:35.512Z,72.50
2023-01-11T06:22:03.145Z,86.37
2023-01-11T06:24:30.828Z,73.50
2023-01-11T06:26:58.231Z,69.67
2023-01-11T06:29:26.001Z,70.73
2023-01-11T06:31:53.440Z,83.83
2023-01-11T06:34:21.275Z,83.53
2023-01-11T06:36:49.153Z,86.30
2023-01-11T06:39:16.806Z,102.93
2023-01-11T06:41:44.050Z,89.70
2023-01-11T06:44:11.702Z,80.33
2023-01-11T06:46:39.019Z,89.73
2023-01-11T06:49:06.645Z,89.20
2023-01-11T06:51:34.027Z,90.23
2023-01-11T06:54:01.783Z,92.73
2023-01-11T06:56:29.045Z,85.50
2023-01-11T06:58:56.754Z,86.30
2023-01-11T07:01:25.228Z,83.87
2023-01-11T07:03:53.458Z,89.17
2023-01-11T07:06:20.908Z,84.20
2023-01-11T07:08:48.716Z,82.30
2023-01-11T07:11:16.330Z,78.83
2023-01-11T07:13:44.184Z,73.43
2023-01-11T07:16:11.761Z,81.03
2023-01-11T07:18:39.494Z,87.33
2023-01-11T07:21:07.013Z,77.73
2023-01-11T07:23:35.006Z,80.03
2023-01-11T07:26:02.551Z,95.93
2023-01-11T07:28:30.932Z,94.27
2023-01-11T07:30:59.936Z,77.07
2023-01-11T07:33:28.639Z,69.90
2023-01-11T07:35:56.670Z,74.43
2023-01-11T07:38:24.768Z,78.50
2023-01-11T07:40:52.307Z,72.50
2023-01-11T07:43:24.101Z,72.20
2023-01-11T07:45:53.585Z,75.87
2023-01-11T07:48:27.431Z,62.30
2023-01-11T07:50:55.389Z,78.43
2023-01-11T07:53:26.137Z,73.93
2023-01-11T07:55:55.895Z,67.27
2023-01-11T07:58:25.098Z,65.20
2023-01-11T08:00:52.850Z,60.80
2023-01-11T08:03:21.047Z,51.83
2023-01-11T08:05:53.358Z,58.33
2023-01-11T08:08:21.881Z,69.47
2023-01-11T08:11:12.816Z,56.23
2023-01-11T08:13:58.897Z,53.77
2023-01-11T08:16:27.546Z,55.77
2023-01-11T08:18:55.728Z,39.60
2023-01-11T08:21:23.367Z,50.87
2023-01-11T08:23:54.621Z,43.60
2023-01-11T08:26:28.006Z,44.20
2023-01-11T08:28:56.643Z,37.17
2023-01-11T08:31:24.761Z,40.70
2023-01-11T08:33:52.454Z,36.80
2023-01-11T08:36:20.198Z,41.47
2023-01-11T08:38:47.963Z,39.13
2023-01-11T08:41:15.523Z,36.47
2023-01-11T08:43:43.900Z,37.10
2023-01-11T08:46:11.402Z,34.47
2023-01-11T08:48:38.939Z,41.60
2023-01-11T08:51:06.312Z,36.53
2023-01-11T08:53:33.971Z,34.13
2023-01-11T08:56:01.501Z,32.63
2023-01-11T08:58:29.850Z,26.33
2023-01-11T09:01:00.311Z,30.80
2023-01-11T09:03:28.935Z,28.20
2023-01-11T09:06:00.209Z,29.67
2023-01-11T09:08:29.422Z,27.43
2023-01-11T09:10:59.921Z,25.90
2023-01-11T09:13:28.904Z,25.47
2023-01-11T09:16:00.008Z,28.30
2023-01-11T09:18:27.699Z,30.97
2023-01-11T09:20:55.285Z,23.97
2023-01-11T09:23:23.476Z,22.67
2023-01-11T09:25:51.752Z,25.87
2023-01-11T09:28:20.121Z,24.30
2023-01-11T09:30:47.923Z,24.43
2023-01-11T09:33:15.682Z,22.90
2023-01-11T09:35:46.592Z,24.77
2023-01-11T09:38:15.020Z,21.97
2023-01-11T09:41:08.997Z,21.13
2023-01-11T09:43:51.249Z,24.57
2023-01-11T09:46:19.872Z,23.10
2023-01-11T09:49:00.535Z,25.20
2023-01-11T09:51:35.478Z,21.20
2023-01-11T09:54:08.682Z,21.37
2023-01-11T09:56:48.731Z,24.40
2023-01-11T09:59:35.169Z,18.70
2023-01-11T10:02:20.212Z,20.87
2023-01-11T10:05:31.184Z,19.77
2023-01-11T10:18:31.018Z,20.17
2023-01-11T10:18:39.150Z,23.23
2023-01-11T10:20:28.068Z,22.90
2023-01-11T10:23:06.622Z,23.67
2023-01-11T10:25:43.333Z,21.90
2023-01-11T10:28:27.777Z,20.23
2023-01-11T10:30:59.650Z,23.63
2023-01-11T10:33:51.298Z,23.20
2023-01-11T10:37:01.636Z,21.23
2023-01-11T10:39:55.577Z,21.43
2023-01-11T10:42:29.614Z,18.87
2023-01-11T10:45:18.922Z,20.77
2023-01-11T10:48:04.444Z,22.33
2023-01-11T10:51:10.718Z,21.53
2023-01-11T10:54:01.311Z,17.07
2023-01-11T10:57:13.650Z,23.17
2023-01-11T11:00:23.870Z,26.33
2023-01-11T11:03:00.585Z,18.93
2023-01-11T11:05:34.496Z,21.00
2023-01-11T11:08:17.865Z,20.27
2023-01-11T11:10:57.301Z,18.53
2023-01-11T11:13:40.865Z,20.73
2023-01-11T11:16:23.374Z,22.77
2023-01-11T11:18:54.713Z,19.57
2023-01-11T11:21:53.081Z,23.10
2023-01-11T11:24:28.061Z,21.87
2023-01-11T11:27:09.313Z,19.83
2023-01-11T11:29:50.219Z,16.30
2023-01-11T11:32:27.997Z,16.27
2023-01-11T11:34:55.765Z,15.20
2023-01-11T11:37:35.609Z,17.17
2023-01-11T11:40:06.328Z,13.80
2023-01-11T11:42:33.791Z,15.17
2023-01-11T11:45:10.577Z,15.77
2023-01-11T11:47:38.980Z,13.70
2023-01-11T11:50:43.596Z,12.40
2023-01-11T11:53:23.827Z,13.93
2023-01-11T11:55:53.081Z,24.83
2023-01-11T11:58:25.253Z,19.13
2023-01-11T12:00:53.561Z,13.23
2023-01-11T12:03:34.577Z,16.90
2023-01-11T12:06:05.419Z,15.10
2023-01-11T12:08:35.604Z,18.53
2023-01-11T12:11:15.498Z,15.17
2023-01-11T12:13:44.866Z,19.53
2023-01-11T12:16:22.806Z,17.57
2023-01-11T12:18:50.499Z,16.77
2023-01-11T12:21:19.890Z,19.40
2023-01-11T12:23:48.207Z,16.43
2023-01-11T12:26:31.568Z,13.43
2023-01-11T12:29:17.400Z,13.97
2023-01-11T12:32:02.643Z,15.07
2023-01-11T12:34:38.964Z,18.03
2023-01-11T12:37:15.555Z,15.30
2023-01-11T12:40:01.583Z,16.87
2023-01-11T12:42:54.140Z,15.73
2023-01-11T12:45:28.307Z,15.87
2023-01-11T12:48:31.659Z,20.40
2023-01-11T12:51:29.390Z,22.80
2023-01-11T12:54:00.192Z,22.30
2023-01-11T12:56:39.789Z,15.43
2023-01-11T12:59:16.056Z,13.80
2023-01-11T13:01:57.676Z,16.80
2023-01-11T13:04:58.677Z,17.00
2023-01-11T13:08:07.545Z,24.80
2023-01-11T13:10:49.991Z,18.27
2023-01-11T13:13:35.574Z,17.40
2023-01-11T13:16:22.279Z,15.53
2023-01-11T13:19:23.150Z,18.13
2023-01-11T13:21:55.875Z,17.13
2023-01-11T13:24:30.867Z,16.60
2023-01-11T13:27:12.360Z,15.27
2023-01-11T13:29:44.133Z,15.73
2023-01-11T13:32:23.533Z,16.90
2023-01-11T13:35:00.283Z,17.43
2023-01-11T13:37:28.365Z,19.13
2023-01-11T13:39:59.712Z,19.77
2023-01-11T13:42:37.160Z,19.73
2023-01-11T13:45:18.150Z,20.93
2023-01-11T13:47:54.344Z,18.63
2023-01-11T13:50:37.563Z,18.57
2023-01-11T13:53:15.728Z,19.53
2023-01-11T13:55:57.773Z,27.63
2023-01-11T13:58:49.453Z,20.90
2023-01-11T14:01:48.042Z,20.23
2023-01-11T14:04:25.854Z,17.57
2023-01-11T14:07:12.200Z,19.37
2023-01-11T14:09:50.159Z,18.33
2023-01-11T14:12:23.727Z,18.80
2023-01-11T14:15:06.198Z,16.27
2023-01-11T14:17:38.471Z,16.07
2023-01-11T14:20:18.517Z,19.57
2023-01-11T14:23:05.113Z,18.10
2023-01-11T14:26:06.704Z,18.30
2023-01-11T14:28:52.132Z,17.43
2023-01-11T14:31:29.307Z,19.93
2023-01-11T14:34:05.742Z,17.73
2023-01-11T14:37:00.841Z,17.00
2023-01-11T14:39:51.504Z,22.93
2023-01-11T14:42:43.754Z,18.43
2023-01-11T14:45:20.465Z,18.07
2023-01-11T14:47:59.675Z,18.80
2023-01-11T14:51:07.052Z,20.53
2023-01-11T14:53:46.688Z,19.23
2023-01-11T14:56:56.625Z,17.97
2023-01-11T14:59:31.109Z,18.13
2023-01-11T15:02:05.550Z,17.60
2023-01-11T15:04:36.463Z,18.70
2023-01-11T15:07:25.872Z,17.53
2023-01-11T15:09:54.377Z,17.60
2023-01-11T15:12:25.729Z,26.37
2023-01-11T15:15:08.775Z,26.70
2023-01-11T15:17:55.185Z,21.20
2023-01-11T15:20:24.404Z,21.37
2023-01-11T15:23:07.467Z,21.80
2023-01-11T15:25:35.931Z,21.10
2023-01-11T15:28:25.803Z,23.37
2023-01-11T15:30:53.902Z,22.67
2023-01-11T15:33:25.399Z,21.07
2023-01-11T15:35:56.857Z,19.37
2023-01-11T15:38:37.708Z,21.13
2023-01-11T15:41:33.617Z,23.83
2023-01-11T15:44:23.294Z,20.60
2023-01-11T15:47:26.490Z,20.73
2023-01-11T15:50:18.575Z,18.27
2023-01-11T15:53:21.087Z,19.23
2023-01-11T15:56:03.779Z,25.17
2023-01-11T15:58:37.821Z,26.00
2023-01-11T16:01:30.521Z,20.77
2023-01-11T16:04:22.139Z,21.00
2023-01-11T16:06:58.990Z,26.43
2023-01-11T16:09:48.638Z,22.90
2023-01-11T16:12:48.135Z,25.73
2023-01-11T16:15:40.508Z,22.30
2023-01-11T16:18:20.261Z,23.97
2023-01-11T16:21:03.127Z,25.63
2023-01-11T16:23:34.896Z,24.87
2023-01-11T16:26:05.276Z,22.73
2023-01-11T16:28:35.910Z,24.37
2023-01-11T16:31:06.140Z,23.80
2023-01-11T16:33:36.245Z,22.93
2023-01-11T16:36:24.777Z,29.13
2023-01-11T16:38:59.896Z,26.47
2023-01-11T16:41:38.421Z,29.33
2023-01-11T16:44:09.926Z,28.43
2023-01-11T16:46:47.117Z,28.07
2023-01-11T16:49:18.807Z,25.63
2023-01-11T16:51:49.186Z,27.57
2023-01-11T16:54:24.048Z,28.90
2023-01-11T16:56:52.657Z,35.13
2023-01-11T16:59:31.965Z,27.80
2023-01-11T17:02:11.342Z,33.20
2023-01-11T17:04:50.635Z,30.73
2023-01-11T17:07:23.187Z,28.57
2023-01-11T17:09:51.484Z,29.50
2023-01-11T17:12:25.570Z,31.47
2023-01-11T17:15:09.321Z,34.37
2023-01-11T17:17:38.165Z,37.13
2023-01-11T17:20:22.853Z,31.23
2023-01-11T17:22:54.036Z,35.40
2023-01-11T17:25:29.535Z,32.80
2023-01-11T17:28:05.990Z,30.37
2023-01-11T17:30:34.709Z,40.80
2023-01-11T17:33:03.021Z,34.03
2023-01-11T17:35:35.026Z,33.37
2023-01-11T17:38:06.672Z,32.67
2023-01-11T17:40:38.765Z,39.43
2023-01-11T17:44:07.543Z,35.47
2023-01-11T17:46:36.133Z,33.00
2023-01-11T17:49:04.077Z,39.03
2023-01-11T17:51:36.014Z,36.67
2023-01-11T17:54:04.370Z,33.20
2023-01-11T17:56:38.257Z,29.47
2023-01-11T17:59:21.764Z,31.20
2023-01-11T18:01:52.773Z,36.03
2023-01-11T18:04:22.569Z,37.37
2023-01-11T18:06:57.506Z,39.17
2023-01-11T18:09:29.417Z,37.23
2023-01-11T18:12:23.715Z,40.40
2023-01-11T18:15:01.995Z,37.23
2023-01-11T18:17:38.039Z,41.90
2023-01-11T18:20:15.219Z,47.27
2023-01-11T18:22:59.364Z,47.57
2023-01-11T18:25:29.740Z,41.00
2023-01-11T18:28:20.412Z,47.00
2023-01-11T18:30:59.443Z,46.90
2023-01-11T18:33:30.844Z,45.03
2023-01-11T18:36:04.095Z,41.47
2023-01-11T18:38:35.721Z,44.17
2023-01-11T18:41:26.726Z,36.73
2023-01-11T18:43:55.403Z,40.30
2023-01-11T18:46:25.070Z,41.10
2023-01-11T18:48:54.902Z,37.37
2023-01-11T18:51:32.531Z,32.13
2023-01-11T18:54:00.626Z,36.90
2023-01-11T18:56:31.475Z,32.97
2023-01-11T18:59:00.026Z,35.10
2023-01-11T19:01:33.383Z,34.53
2023-01-11T19:04:11.095Z,33.67
2023-01-11T19:06:39.581Z,37.57
2023-01-11T19:09:07.791Z,32.93
2023-01-11T19:11:35.983Z,34.27
2023-01-11T19:14:03.616Z,32.80
2023-01-11T19:16:31.814Z,32.47
2023-01-11T19:18:59.581Z,33.83
2023-01-11T19:21:27.703Z,36.70
2023-01-11T19:23:55.111Z,31.50
2023-01-11T19:26:23.109Z,41.97
2023-01-11T19:28:50.664Z,40.80
2023-01-11T19:31:18.490Z,33.80
2023-01-11T19:33:46.207Z,34.33
2023-01-11T19:36:14.117Z,37.17
2023-01-11T19:38:41.786Z,39.73
2023-01-11T19:41:10.696Z,37.10
2023-01-11T19:43:45.269Z,39.27
2023-01-11T19:46:22.456Z,39.50
2023-01-11T19:48:58.208Z,44.07
2023-01-11T19:51:26.643Z,38.40
2023-01-11T19:53:54.515Z,38.10
2023-01-11T19:56:23.111Z,44.37
2023-01-11T19:58:51.578Z,40.43
2023-01-11T20:01:19.633Z,43.80
2023-01-11T20:03:48.563Z,54.90
2023-01-11T20:06:17.258Z,46.50
2023-01-11T20:08:45.730Z,47.97
2023-01-11T20:11:15.590Z,46.53
2023-01-11T20:13:45.874Z,49.23
2023-01-11T20:16:14.787Z,51.17
2023-01-11T20:18:53.039Z,49.50
2023-01-11T20:21:24.425Z,51.10
2023-01-11T20:23:53.228Z,53.20
2023-01-11T20:26:22.611Z,49.97
2023-01-11T20:28:55.445Z,47.00
2023-01-11T20:31:28.500Z,55.60
2023-01-11T20:33:56.996Z,52.47
2023-01-11T20:36:26.530Z,52.20
2023-01-11T20:38:55.367Z,50.47
2023-01-11T20:41:44.775Z,53.00
2023-01-11T20:44:32.100Z,51.23
2023-01-11T20:47:01.537Z,49.80
2023-01-11T20:49:30.822Z,57.90
2023-01-11T20:51:59.696Z,62.67
2023-01-11T20:54:28.974Z,56.17
2023-01-11T20:57:02.609Z,53.37
2023-01-11T20:59:32.622Z,52.83
2023-01-11T21:02:00.863Z,55.30
2023-01-11T21:04:31.282Z,49.77
2023-01-11T21:06:59.993Z,51.60
2023-01-11T21:09:28.233Z,62.87
2023-01-11T21:11:56.794Z,58.10
2023-01-11T21:14:25.424Z,57.40
2023-01-11T21:16:55.556Z,58.00
2023-01-11T21:19:23.559Z,57.03
2023-01-11T21:21:52.364Z,56.10
2023-01-11T21:24:21.445Z,55.60
2023-01-11T21:26:49.887Z,55.33
2023-01-11T21:29:18.159Z,60.83
2023-01-11T21:31:46.113Z,60.43
2023-01-11T21:34:14.798Z,62.83
2023-01-11T21:36:43.973Z,59.20
2023-01-11T21:39:14.771Z,53.23
2023-01-11T21:41:56.698Z,50.70
2023-01-11T21:44:31.036Z,62.23
2023-01-11T21:47:03.217Z,51.63
2023-01-11T21:49:33.712Z,55.47
2023-01-11T21:52:02.928Z,48.63
2023-01-11T21:54:30.875Z,56.80
2023-01-11T21:56:58.929Z,47.90
2023-01-11T21:59:26.721Z,50.73
2023-01-11T22:01:54.742Z,50.57
2023-01-11T22:04:22.734Z,54.23
2023-01-11T22:06:59.075Z,55.77
2023-01-11T22:09:30.350Z,53.37
2023-01-11T22:11:58.493Z,45.00
2023-01-11T22:14:26.295Z,46.60
2023-01-11T22:16:54.422Z,48.30
2023-01-11T22:19:21.997Z,49.83
2023-01-11T22:21:49.939Z,50.37
2023-01-11T22:24:18.008Z,51.67
2023-01-11T22:26:46.471Z,47.50
2023-01-11T22:29:16.957Z,55.90
2023-01-11T22:31:51.446Z,52.90
2023-01-11T22:34:19.798Z,50.83
2023-01-11T22:36:47.727Z,52.67
2023-01-11T22:39:16.522Z,47.97
2023-01-11T22:41:46.124Z,49.50
2023-01-11T22:44:14.882Z,57.07
2023-01-11T22:46:43.550Z,47.33
2023-01-11T22:49:12.246Z,52.97
2023-01-11T22:51:41.915Z,50.30
2023-01-11T22:54:10.071Z,49.23
2023-01-11T22:56:37.914Z,50.53
2023-01-11T22:59:05.380Z,54.67
2023-01-11T23:01:35.625Z,49.70
2023-01-11T23:04:05.049Z,50.13
2023-01-11T23:06:39.197Z,53.50
2023-01-11T23:09:09.614Z,48.47
2023-01-11T23:11:57.970Z,48.30
2023-01-11T23:14:29.757Z,47.03
2023-01-11T23:17:18.212Z,47.50
2023-01-11T23:19:45.898Z,61.17
2023-01-11T23:22:16.860Z,55.30
2023-01-11T23:24:44.460Z,59.30
2023-01-11T23:27:12.358Z,55.23
2023-01-11T23:29:40.022Z,54.50
2023-01-11T23:32:07.725Z,56.80
2023-01-11T23:34:35.512Z,56.30
2023-01-11T23:37:03.823Z,50.33
2023-01-11T23:39:33.047Z,58.63
2023-01-11T23:42:19.269Z,51.97
2023-01-11T23:44:47.266Z,50.73
2023-01-11T23:47:29.987Z,47.77
2023-01-11T23:50:01.007Z,57.90
2023-01-11T23:52:32.318Z,48.40
2023-01-11T23:55:00.208Z,46.73
2023-01-11T23:57:28.874Z,56.73
2023-01-11T23:59:56.927Z,50.73
